Time;durP1;ratioP1;P1;durP2;ratioP2;P2;SDS_P1;SDS_P2;PMS_P1;PMS_P2;Temp;Humidity;BMP_temperature;BMP_pressure;BME280_temperature;BME280_humidity;BME280_pressure;Samples;Min_cycle;Max_cycle;Signal;HPM_P1;HPM_P2
2021/03/03 00:00:14;;;;;;;37.37;17.73;;;8.10;74.00;;;;;;5019145;28;20108;-82
2021/03/03 00:02:40;;;;;;;32.67;17.00;;;8.10;74.20;;;;;;5019048;28;20064;-80
2021/03/03 00:05:06;;;;;;;34.60;17.27;;;8.10;74.30;;;;;;5019497;28;20453;-79
2021/03/03 00:07:32;;;;;;;35.33;16.57;;;8.00;74.40;;;;;;5018966;28;20110;-79
2021/03/03 00:09:57;;;;;;;33.27;17.07;;;8.00;75.40;;;;;;5018902;28;20033;-79
2021/03/03 00:12:23;;;;;;;34.57;17.33;;;8.00;75.00;;;;;;5035388;28;20044;-80
2021/03/03 00:14:49;;;;;;;28.83;16.07;;;7.90;75.30;;;;;;5018707;28;20044;-79
2021/03/03 00:17:14;;;;;;;31.73;16.83;;;8.00;75.50;;;;;;5035259;28;20139;-79
2021/03/03 00:19:40;;;;;;;29.83;16.73;;;7.90;75.70;;;;;;5018886;28;20059;-80
2021/03/03 00:22:05;;;;;;;33.40;17.10;;;7.80;75.70;;;;;;5034784;28;20507;-79
2021/03/03 00:24:31;;;;;;;35.00;18.17;;;7.90;75.90;;;;;;5051800;28;20058;-79
2021/03/03 00:26:57;;;;;;;29.73;16.97;;;7.90;76.10;;;;;;5035204;28;20025;-80
2021/03/03 00:29:22;;;;;;;29.97;16.20;;;7.90;76.30;;;;;;5051891;28;20033;-80
2021/03/03 00:31:48;;;;;;;29.43;16.10;;;7.90;76.60;;;;;;5051719;28;20038;-80
2021/03/03 00:34:14;;;;;;;35.27;17.27;;;7.80;76.70;;;;;;5035158;28;20031;-80
2021/03/03 00:36:39;;;;;;;31.90;17.33;;;7.80;76.80;;;;;;5018662;28;20021;-80
2021/03/03 00:39:05;;;;;;;37.57;18.03;;;7.80;76.80;;;;;;5035137;28;20361;-80
2021/03/03 00:41:31;;;;;;;31.63;16.83;;;7.70;76.70;;;;;;5051745;28;20025;-80
2021/03/03 00:43:56;;;;;;;34.53;16.97;;;7.80;76.90;;;;;;5018689;28;20465;-80
2021/03/03 00:46:22;;;;;;;34.17;17.83;;;7.70;77.00;;;;;;5035305;28;20025;-80
2021/03/03 00:48:49;;;;;;;32.63;17.10;;;7.60;76.90;;;;;;5035022;28;20025;-80
2021/03/03 00:51:15;;;;;;;39.37;17.93;;;7.60;77.00;;;;;;5052853;28;20029;-79
2021/03/03 00:53:40;;;;;;;38.07;18.27;;;7.70;77.10;;;;;;5018592;28;20029;-79
2021/03/03 00:56:06;;;;;;;33.27;16.80;;;7.60;77.10;;;;;;5018479;28;20114;-79
2021/03/03 00:58:31;;;;;;;33.60;17.37;;;7.70;77.00;;;;;;5051443;28;20029;-79
2021/03/03 01:00:58;;;;;;;31.83;16.47;;;7.50;76.70;;;;;;5018664;28;20014;-79
2021/03/03 01:03:24;;;;;;;31.53;17.53;;;7.60;76.70;;;;;;5052451;28;20588;-79
2021/03/03 01:05:50;;;;;;;35.37;16.53;;;7.60;76.80;;;;;;5034777;28;20033;-79
2021/03/03 01:08:16;;;;;;;34.47;17.00;;;7.40;76.80;;;;;;5034916;28;20021;-79
2021/03/03 01:10:41;;;;;;;31.53;16.77;;;7.50;76.90;;;;;;5052766;28;20036;-79
2021/03/03 01:13:07;;;;;;;33.93;16.90;;;7.50;76.80;;;;;;5034861;28;20067;-80
2021/03/03 01:15:33;;;;;;;31.93;17.20;;;7.40;76.80;;;;;;5018680;28;20033;-79
2021/03/03 01:18:01;;;;;;;30.03;17.10;;;7.40;76.80;;;;;;5051442;28;20029;-79
2021/03/03 01:20:29;;;;;;;32.50;17.43;;;7.40;76.80;;;;;;5035297;28;20032;-79
2021/03/03 01:22:55;;;;;;;29.80;17.53;;;7.40;76.80;;;;;;5034758;28;20055;-79
2021/03/03 01:25:21;;;;;;;31.67;17.13;;;7.40;76.80;;;;;;5052419;28;20060;-79
2021/03/03 01:27:47;;;;;;;32.97;16.47;;;7.30;76.90;;;;;;5034644;28;20036;-79
2021/03/03 01:30:14;;;;;;;31.73;17.67;;;7.30;77.60;;;;;;5034752;28;20032;-79
2021/03/03 01:32:40;;;;;;;32.23;17.63;;;7.30;77.20;;;;;;5037008;28;20128;-79
2021/03/03 01:35:06;;;;;;;32.57;17.80;;;7.30;77.20;;;;;;5054729;28;20461;-79
2021/03/03 01:37:32;;;;;;;33.97;18.47;;;7.30;77.70;;;;;;5054627;28;20111;-79
2021/03/03 01:39:58;;;;;;;32.17;17.13;;;7.20;77.20;;;;;;5021501;28;20064;-80
2021/03/03 01:42:23;;;;;;;37.40;18.03;;;7.30;77.50;;;;;;5054728;28;20037;-79
2021/03/03 01:44:49;;;;;;;31.37;17.03;;;7.20;77.60;;;;;;5038032;28;20029;-79
2021/03/03 01:47:15;;;;;;;32.20;17.33;;;7.20;78.10;;;;;;5038054;28;20116;-79
2021/03/03 01:49:40;;;;;;;32.13;15.57;;;7.20;77.50;;;;;;5021512;28;20112;-79
2021/03/03 01:52:07;;;;;;;34.70;17.77;;;7.20;77.80;;;;;;5054434;28;20025;-79
2021/03/03 01:54:33;;;;;;;32.20;16.90;;;7.20;77.80;;;;;;5054312;28;20025;-79
2021/03/03 01:57:00;;;;;;;31.10;17.17;;;7.20;77.80;;;;;;5021242;28;20436;-79
2021/03/03 01:59:25;;;;;;;33.97;18.30;;;7.20;78.10;;;;;;5054334;28;20079;-79
2021/03/03 02:01:51;;;;;;;34.27;17.53;;;7.10;78.10;;;;;;5037672;28;20021;-80
2021/03/03 02:04:17;;;;;;;32.93;17.53;;;7.10;78.10;;;;;;5021046;28;20045;-80
2021/03/03 02:07:04;;;;;;;33.07;16.67;;;7.20;78.50;;;;;;5021122;28;20029;-79
2021/03/03 02:09:40;;;;;;;31.93;16.93;;;7.10;78.50;;;;;;5054067;28;20033;-79
2021/03/03 02:12:15;;;;;;;32.63;16.20;;;7.10;78.60;;;;;;5054182;28;20033;-79
2021/03/03 02:14:53;;;;;;;30.70;15.93;;;7.00;78.50;;;;;;5053974;28;20064;-79
2021/03/03 02:17:20;;;;;;;28.80;16.57;;;7.00;78.60;;;;;;5054031;28;20120;-79
2021/03/03 02:19:47;;;;;;;32.00;17.87;;;7.00;78.70;;;;;;5037543;28;20029;-79
2021/03/03 02:22:29;;;;;;;30.13;16.63;;;6.90;78.60;;;;;;5053900;28;20025;-79
2021/03/03 02:25:08;;;;;;;32.40;16.67;;;6.90;78.70;;;;;;5055046;28;20099;-79
2021/03/03 02:27:35;;;;;;;38.37;17.30;;;6.90;78.90;;;;;;5053775;28;20078;-79
2021/03/03 02:30:04;;;;;;;30.13;16.37;;;6.90;78.90;;;;;;5053794;28;20489;-79
2021/03/03 02:32:30;;;;;;;30.30;16.80;;;6.90;78.90;;;;;;5036945;28;20033;-79
2021/03/03 02:34:56;;;;;;;32.17;16.83;;;6.90;79.00;;;;;;5053649;28;20094;-79
2021/03/03 02:37:23;;;;;;;31.33;17.80;;;6.80;79.00;;;;;;5037120;28;20036;-81
2021/03/03 02:39:49;;;;;;;34.13;17.97;;;6.80;79.10;;;;;;5053557;28;20040;-80
2021/03/03 02:42:18;;;;;;;31.57;16.90;;;6.80;79.20;;;;;;5037294;28;20056;-80
2021/03/03 02:44:44;;;;;;;28.20;16.47;;;6.80;79.50;;;;;;5052811;28;20025;-81
2021/03/03 02:47:10;;;;;;;32.60;16.30;;;6.80;79.70;;;;;;5036934;28;20029;-81
2021/03/03 02:49:36;;;;;;;31.20;15.23;;;6.70;79.90;;;;;;5036782;28;20048;-81
2021/03/03 02:52:02;;;;;;;31.07;17.50;;;6.70;80.10;;;;;;5053406;28;20047;-81
2021/03/03 02:54:27;;;;;;;30.17;15.50;;;6.60;80.10;;;;;;5020294;28;20481;-78
2021/03/03 02:56:53;;;;;;;31.33;16.87;;;6.70;80.30;;;;;;5053248;28;20477;-78
2021/03/03 02:59:52;;;;;;;32.33;16.33;;;6.60;80.30;;;;;;5020705;28;20052;-79
2021/03/03 03:02:21;;;;;;;28.53;15.03;;;6.60;80.50;;;;;;5049191;28;20051;-79
2021/03/03 03:04:48;;;;;;;28.93;15.80;;;6.60;80.40;;;;;;5036377;28;20382;-79
2021/03/03 03:07:20;;;;;;;32.97;16.30;;;6.60;80.50;;;;;;5053112;28;20033;-79
2021/03/03 03:09:47;;;;;;;32.23;16.67;;;6.50;80.60;;;;;;5053325;28;20028;-78
2021/03/03 03:12:15;;;;;;;32.83;15.80;;;6.50;80.70;;;;;;5061047;28;20017;-78
2021/03/03 03:14:47;;;;;;;33.47;17.00;;;6.50;80.70;;;;;;5072030;28;20023;-78
2021/03/03 03:17:13;;;;;;;31.10;16.73;;;6.50;80.80;;;;;;5039880;28;20052;-79
2021/03/03 03:19:42;;;;;;;28.50;15.90;;;6.40;80.80;;;;;;5054994;28;20029;-80
2021/03/03 03:22:09;;;;;;;38.37;17.47;;;6.40;80.80;;;;;;5072729;28;20020;-79
2021/03/03 03:24:38;;;;;;;31.23;16.63;;;6.40;80.80;;;;;;5073937;28;20024;-79
2021/03/03 03:27:04;;;;;;;31.23;16.53;;;6.40;80.80;;;;;;5072138;28;20028;-79
2021/03/03 03:29:31;;;;;;;31.13;16.33;;;6.40;80.90;;;;;;5039498;28;20219;-79
2021/03/03 03:31:57;;;;;;;29.50;15.47;;;6.30;81.00;;;;;;5072619;28;20090;-79
2021/03/03 03:34:23;;;;;;;29.87;16.67;;;6.30;81.00;;;;;;5055831;28;20472;-79
2021/03/03 03:36:49;;;;;;;29.50;16.50;;;6.30;81.10;;;;;;5055818;28;20472;-79
2021/03/03 03:39:15;;;;;;;28.57;15.33;;;6.30;81.20;;;;;;5072594;28;20077;-79
2021/03/03 03:41:42;;;;;;;30.27;16.37;;;6.20;81.40;;;;;;5072411;28;20068;-79
2021/03/03 03:44:11;;;;;;;32.10;16.93;;;6.20;81.40;;;;;;5055808;28;20033;-79
2021/03/03 03:46:42;;;;;;;28.83;15.77;;;6.20;81.40;;;;;;5072389;28;20025;-79
2021/03/03 03:49:08;;;;;;;31.13;16.10;;;6.20;81.70;;;;;;5072163;28;20024;-79
2021/03/03 03:51:34;;;;;;;31.70;16.63;;;6.20;81.70;;;;;;5072409;28;20029;-79
2021/03/03 03:54:01;;;;;;;32.67;18.07;;;6.10;81.80;;;;;;5072522;28;20028;-78
2021/03/03 03:56:27;;;;;;;31.77;17.00;;;6.20;82.00;;;;;;5054706;28;20060;-79
2021/03/03 03:58:53;;;;;;;32.07;16.07;;;6.20;82.20;;;;;;5055491;28;20117;-79
2021/03/03 04:01:19;;;;;;;30.63;16.97;;;6.10;82.30;;;;;;5072180;28;20021;-79
2021/03/03 04:03:45;;;;;;;31.50;17.30;;;6.20;82.40;;;;;;5071845;28;20059;-79
2021/03/03 04:06:10;;;;;;;29.50;15.67;;;6.30;82.60;;;;;;5072366;28;20033;-79
2021/03/03 04:08:36;;;;;;;26.30;15.47;;;6.20;82.80;;;;;;5038781;28;20495;-79
2021/03/03 04:11:02;;;;;;;28.40;15.77;;;6.10;82.80;;;;;;5055473;28;20025;-79
2021/03/03 04:13:27;;;;;;;29.07;15.03;;;6.20;83.10;;;;;;5072105;28;20036;-79
2021/03/03 04:15:53;;;;;;;31.40;16.13;;;6.10;83.80;;;;;;5072036;28;20037;-79
2021/03/03 04:18:19;;;;;;;27.57;15.17;;;6.10;83.30;;;;;;5072074;28;20565;-79
2021/03/03 04:20:45;;;;;;;30.03;16.17;;;6.10;83.40;;;;;;5038728;28;20526;-79
2021/03/03 04:23:11;;;;;;;33.60;17.07;;;6.10;83.60;;;;;;5073268;28;20021;-79
2021/03/03 04:25:37;;;;;;;31.50;15.77;;;6.10;83.60;;;;;;5072171;28;20384;-79
2021/03/03 04:28:04;;;;;;;31.20;16.23;;;6.10;83.60;;;;;;5071881;28;20111;-79
2021/03/03 04:30:30;;;;;;;29.37;15.27;;;6.10;83.70;;;;;;5071936;28;20373;-79
2021/03/03 04:32:56;;;;;;;31.20;16.13;;;6.20;83.80;;;;;;5054981;28;20036;-79
2021/03/03 04:35:22;;;;;;;33.37;15.23;;;6.00;83.70;;;;;;5055350;28;20029;-80
2021/03/03 04:37:47;;;;;;;31.13;15.13;;;6.10;83.80;;;;;;5038555;28;20052;-79
2021/03/03 04:40:13;;;;;;;29.10;16.20;;;6.10;83.70;;;;;;5055091;28;20029;-79
2021/03/03 04:42:39;;;;;;;31.67;15.07;;;6.10;83.70;;;;;;5071618;28;20028;-79
2021/03/03 04:45:08;;;;;;;32.70;16.60;;;6.00;83.70;;;;;;5055037;28;20507;-79
2021/03/03 04:47:34;;;;;;;31.27;15.03;;;6.00;83.80;;;;;;5071735;28;20030;-79
2021/03/03 04:50:00;;;;;;;34.63;17.10;;;6.00;83.90;;;;;;5055500;28;20357;-79
2021/03/03 04:52:26;;;;;;;28.50;15.30;;;6.00;83.90;;;;;;5071752;28;20087;-79
2021/03/03 04:54:52;;;;;;;32.27;15.87;;;6.00;84.00;;;;;;5054856;28;20473;-79
2021/03/03 04:57:17;;;;;;;28.00;14.47;;;6.00;84.00;;;;;;5054768;28;20028;-79
2021/03/03 04:59:43;;;;;;;32.10;15.67;;;6.00;84.20;;;;;;5071551;28;20490;-78
2021/03/03 05:02:08;;;;;;;29.50;15.10;;;5.90;84.20;;;;;;5036251;28;20025;-79
2021/03/03 05:04:34;;;;;;;26.87;14.77;;;5.90;84.30;;;;;;5070920;28;20463;-79
2021/03/03 05:07:00;;;;;;;29.73;16.07;;;5.90;84.40;;;;;;5054874;28;20029;-83
2021/03/03 05:09:25;;;;;;;28.03;14.87;;;5.70;84.40;;;;;;5041569;28;20021;-83
2021/03/03 05:11:51;;;;;;;29.77;16.00;;;5.80;84.50;;;;;;5075147;28;20497;-83
2021/03/03 05:14:16;;;;;;;32.07;15.90;;;5.80;84.50;;;;;;5058427;28;20033;-83
2021/03/03 05:16:42;;;;;;;28.90;15.80;;;5.80;84.60;;;;;;5040923;28;20115;-83
2021/03/03 05:19:08;;;;;;;33.33;16.83;;;5.80;85.20;;;;;;5058512;28;20025;-83
2021/03/03 05:21:34;;;;;;;32.93;16.63;;;5.80;84.60;;;;;;5041796;28;20107;-83
2021/03/03 05:23:59;;;;;;;33.60;16.63;;;5.70;84.60;;;;;;5058362;28;20472;-83
2021/03/03 05:26:25;;;;;;;31.20;16.07;;;5.70;84.70;;;;;;5076348;28;20519;-83
2021/03/03 05:28:50;;;;;;;29.70;15.90;;;5.70;84.70;;;;;;5074731;28;20056;-83
2021/03/03 05:31:16;;;;;;;32.40;17.07;;;5.70;84.80;;;;;;5058140;28;20040;-83
2021/03/03 05:33:43;;;;;;;34.43;17.43;;;5.70;84.80;;;;;;5058219;28;20029;-83
2021/03/03 05:36:10;;;;;;;33.13;16.97;;;5.70;84.80;;;;;;5074701;28;20021;-82
2021/03/03 05:38:38;;;;;;;37.83;18.27;;;5.70;84.80;;;;;;5058183;28;20028;-82
2021/03/03 05:41:05;;;;;;;32.80;17.33;;;5.70;85.00;;;;;;5075949;28;20082;-83
2021/03/03 05:43:32;;;;;;;32.93;16.93;;;5.70;85.00;;;;;;5057970;28;20040;-83
2021/03/03 05:45:59;;;;;;;35.77;18.27;;;5.70;85.10;;;;;;5074610;28;20047;-83
2021/03/03 05:48:45;;;;;;;35.60;17.17;;;5.60;85.20;;;;;;5041319;28;20028;-83
2021/03/03 05:51:11;;;;;;;29.80;16.83;;;5.70;85.30;;;;;;5059720;28;20063;-79
2021/03/03 05:53:38;;;;;;;37.60;16.57;;;5.70;85.30;;;;;;5057724;28;20456;-79
2021/03/03 05:56:09;;;;;;;28.67;15.60;;;5.70;85.30;;;;;;5074375;28;20329;-78
2021/03/03 05:58:37;;;;;;;34.87;17.70;;;5.70;85.40;;;;;;5074348;28;20012;-79
2021/03/03 06:01:05;;;;;;;30.50;17.27;;;5.70;85.40;;;;;;5074403;28;20380;-79
2021/03/03 06:03:31;;;;;;;33.57;17.47;;;5.70;85.90;;;;;;5074150;28;20388;-79
2021/03/03 06:05:57;;;;;;;30.87;16.67;;;5.80;85.60;;;;;;5057635;28;20029;-79
2021/03/03 06:08:28;;;;;;;44.90;18.33;;;5.80;85.70;;;;;;5057560;28;20031;-79
2021/03/03 06:10:54;;;;;;;30.13;16.67;;;5.70;85.60;;;;;;5074182;28;20571;-80
2021/03/03 06:13:20;;;;;;;29.10;17.13;;;5.80;85.70;;;;;;5041244;28;20024;-80
2021/03/03 06:15:46;;;;;;;32.10;16.53;;;5.80;85.80;;;;;;5057451;28;20480;-80
2021/03/03 06:18:13;;;;;;;34.20;15.77;;;5.70;85.90;;;;;;5074296;28;20021;-80
2021/03/03 06:20:44;;;;;;;34.17;16.90;;;5.80;86.00;;;;;;5057411;28;20472;-83
2021/03/03 06:23:28;;;;;;;31.67;16.67;;;5.80;86.10;;;;;;5073591;28;20489;-83
2021/03/03 06:25:57;;;;;;;27.95;15.80;;;5.80;86.10;;;;;;5074215;28;20506;-83
2021/03/03 06:28:37;;;;;;;30.47;15.77;;;5.80;86.10;;;;;;5073743;28;20037;-83
2021/03/03 06:31:25;;;;;;;31.67;16.93;;;5.80;86.10;;;;;;5073616;28;20032;-83
2021/03/03 06:33:52;;;;;;;31.63;16.03;;;5.80;86.10;;;;;;5073487;28;20066;-83
2021/03/03 06:36:26;;;;;;;31.80;16.70;;;5.80;86.10;;;;;;5073453;28;20381;-83
2021/03/03 06:38:51;;;;;;;33.15;17.40;;;5.80;86.20;;;;;;5073439;28;20077;-83
2021/03/03 06:41:17;;;;;;;34.23;16.47;;;5.70;86.10;;;;;;5040019;28;20477;-83
2021/03/03 06:44:03;;;;;;;35.73;17.33;;;5.90;86.10;;;;;;5056782;28;20111;-82
2021/03/03 06:46:29;;;;;;;32.77;16.47;;;5.70;86.10;;;;;;5056572;28;20488;-79
2021/03/03 06:48:54;;;;;;;30.40;15.80;;;5.70;86.10;;;;;;5074754;28;20107;-78
2021/03/03 06:51:32;;;;;;;35.53;16.17;;;5.80;86.20;;;;;;5056701;28;20036;-79
2021/03/03 06:54:03;;;;;;;33.27;17.67;;;5.70;86.10;;;;;;5074432;28;20477;-79
2021/03/03 06:56:45;;;;;;;35.33;17.73;;;5.70;86.20;;;;;;5073092;28;20047;-79
2021/03/03 06:59:10;;;;;;;36.67;17.83;;;5.70;86.40;;;;;;5056453;28;20492;-79
2021/03/03 07:01:36;;;;;;;32.10;16.97;;;5.70;86.50;;;;;;5072962;28;20021;-79
2021/03/03 07:04:03;;;;;;;40.40;18.17;;;5.70;87.00;;;;;;5073944;28;20416;-82
2021/03/03 07:06:32;;;;;;;33.20;18.07;;;5.80;86.40;;;;;;5055946;28;20093;-83
2021/03/03 07:08:59;;;;;;;35.97;18.13;;;5.80;86.50;;;;;;5056270;28;20430;-82
2021/03/03 07:11:29;;;;;;;32.57;17.33;;;5.80;86.60;;;;;;5072628;28;20028;-82
2021/03/03 07:13:55;;;;;;;32.50;16.83;;;5.80;86.70;;;;;;5056254;28;20037;-81
2021/03/03 07:16:21;;;;;;;30.00;16.27;;;5.80;86.80;;;;;;5039037;28;20127;-82
2021/03/03 07:18:46;;;;;;;33.37;17.83;;;5.90;87.10;;;;;;5055476;28;20071;-82
2021/03/03 07:21:12;;;;;;;31.33;17.13;;;6.00;87.20;;;;;;5055912;28;20455;-82
2021/03/03 07:23:50;;;;;;;36.37;17.90;;;6.10;87.30;;;;;;5055474;28;20025;-83
2021/03/03 07:26:18;;;;;;;35.93;18.33;;;6.10;87.20;;;;;;5055663;28;20036;-82
2021/03/03 07:28:44;;;;;;;31.47;18.17;;;6.20;87.20;;;;;;5073463;28;20024;-82
2021/03/03 07:31:12;;;;;;;35.90;17.50;;;6.30;87.30;;;;;;5055644;28;20037;-82
2021/03/03 07:33:38;;;;;;;31.57;17.73;;;6.30;87.20;;;;;;5072253;28;20033;-82
2021/03/03 07:36:06;;;;;;;32.63;17.83;;;6.40;87.20;;;;;;5072475;28;20062;-82
2021/03/03 07:38:34;;;;;;;34.17;18.47;;;6.50;87.20;;;;;;5072247;28;20028;-83
2021/03/03 07:41:05;;;;;;;40.30;19.17;;;6.50;87.00;;;;;;5072138;28;20028;-83
2021/03/03 07:43:32;;;;;;;31.90;18.23;;;6.60;87.00;;;;;;5055880;28;20028;-83
2021/03/03 07:46:02;;;;;;;38.53;20.23;;;6.70;86.90;;;;;;5055510;28;20043;-84
2021/03/03 07:48:30;;;;;;;38.80;19.57;;;6.80;86.90;;;;;;5072175;28;20028;-83
2021/03/03 07:50:56;;;;;;;32.37;18.67;;;6.90;86.70;;;;;;5055516;28;20495;-83
2021/03/03 07:53:22;;;;;;;34.27;19.40;;;7.00;86.50;;;;;;5055340;28;20381;-83
2021/03/03 07:55:49;;;;;;;36.10;19.13;;;7.10;86.40;;;;;;5072168;28;20472;-83
2021/03/03 07:58:15;;;;;;;35.63;19.33;;;7.20;86.10;;;;;;5055443;28;20048;-83
2021/03/03 08:00:43;;;;;;;37.93;19.10;;;7.20;85.70;;;;;;5072221;28;20089;-83
2021/03/03 08:03:09;;;;;;;35.83;19.43;;;7.30;85.60;;;;;;5055583;28;20029;-84
2021/03/03 08:05:37;;;;;;;34.37;19.83;;;7.40;85.50;;;;;;5055003;28;20114;-83
2021/03/03 08:08:30;;;;;;;39.40;20.07;;;7.50;85.20;;;;;;5072144;28;20040;-80
2021/03/03 08:10:59;;;;;;;33.00;18.57;;;7.50;85.00;;;;;;5073181;28;20025;-80
2021/03/03 08:13:31;;;;;;;34.50;19.97;;;7.70;84.70;;;;;;5071656;28;20384;-81
2021/03/03 08:16:01;;;;;;;34.67;20.17;;;7.70;84.40;;;;;;5063872;28;20044;-86
2021/03/03 08:18:31;;;;;;;36.03;19.03;;;7.80;84.20;;;;;;5051654;28;20476;-85
2021/03/03 08:21:21;;;;;;;40.50;19.37;;;7.90;84.10;;;;;;5051563;28;20017;-85
2021/03/03 08:23:52;;;;;;;36.07;20.13;;;8.00;84.00;;;;;;5047515;28;20029;-85
2021/03/03 08:26:18;;;;;;;38.80;19.97;;;8.10;83.60;;;;;;5050740;28;20071;-84
2021/03/03 08:28:50;;;;;;;36.90;22.63;;;8.10;83.30;;;;;;5051561;28;20037;-85
2021/03/03 08:31:16;;;;;;;38.83;22.40;;;8.10;82.90;;;;;;5052016;28;20075;-84
2021/03/03 08:33:43;;;;;;;40.30;22.80;;;8.20;82.80;;;;;;5051551;28;20388;-85
2021/03/03 08:36:21;;;;;;;38.67;22.67;;;8.20;82.60;;;;;;5051581;28;20021;-80
2021/03/03 08:39:10;;;;;;;36.50;21.87;;;8.30;82.60;;;;;;5036446;28;20072;-80
2021/03/03 08:41:40;;;;;;;38.07;22.53;;;8.40;82.50;;;;;;5038591;28;20032;-81
2021/03/03 08:44:14;;;;;;;35.83;21.60;;;8.40;82.20;;;;;;5057001;28;20071;-80
2021/03/03 08:46:43;;;;;;;39.50;22.93;;;8.40;82.10;;;;;;5055350;28;20025;-80
2021/03/03 08:49:08;;;;;;;41.57;23.97;;;8.50;82.10;;;;;;5056658;28;20075;-79
2021/03/03 08:51:37;;;;;;;49.30;24.67;;;8.60;82.00;;;;;;5055552;28;20485;-84
2021/03/03 08:54:05;;;;;;;42.60;24.47;;;8.70;81.90;;;;;;5055306;28;20116;-82
2021/03/03 08:56:39;;;;;;;46.97;25.90;;;8.70;81.70;;;;;;5055247;28;20021;-83
2021/03/03 08:59:04;;;;;;;;;;;8.80;81.60;;;;;;5055632;28;20017;-84
2021/03/03 09:02:02;;;;;;;43.40;23.73;;;8.80;81.50;;;;;;5055306;28;20379;-85
2021/03/03 09:04:32;;;;;;;41.20;24.20;;;8.90;81.30;;;;;;5055087;28;20136;-84
2021/03/03 09:07:07;;;;;;;41.87;24.97;;;8.90;81.10;;;;;;5055018;28;20082;-84
2021/03/03 09:09:49;;;;;;;41.10;25.00;;;9.00;81.20;;;;;;5054840;28;20025;-83
2021/03/03 09:12:17;;;;;;;47.73;24.63;;;9.10;81.10;;;;;;5056302;28;20060;-84
2021/03/03 09:14:44;;;;;;;48.23;26.53;;;9.20;81.10;;;;;;5055222;28;20477;-85
2021/03/03 09:17:15;;;;;;;43.63;26.50;;;9.30;81.00;;;;;;5038508;28;20373;-83
2021/03/03 09:19:42;;;;;;;42.83;26.23;;;9.40;81.00;;;;;;5057624;28;20530;-84
2021/03/03 09:22:23;;;;;;;45.47;27.07;;;9.50;81.00;;;;;;5043563;28;20033;-84
2021/03/03 09:24:50;;;;;;;44.90;27.00;;;9.60;80.60;;;;;;5054793;28;20021;-84
2021/03/03 09:27:16;;;;;;;41.83;25.33;;;9.70;80.60;;;;;;5038287;28;20063;-84
2021/03/03 09:29:42;;;;;;;44.07;27.30;;;9.70;80.40;;;;;;5038376;28;20069;-85
2021/03/03 09:32:13;;;;;;;39.97;26.47;;;9.80;80.40;;;;;;5037204;28;20036;-85
2021/03/03 09:34:46;;;;;;;42.33;27.13;;;9.90;80.30;;;;;;5054909;28;20472;-84
2021/03/03 09:37:12;;;;;;;46.67;28.50;;;10.10;80.90;;;;;;5056115;28;20435;-85
2021/03/03 09:39:39;;;;;;;46.30;27.00;;;10.10;80.20;;;;;;5038795;28;20119;-85
2021/03/03 09:42:10;;;;;;;45.37;28.40;;;10.20;80.00;;;;;;5055161;28;20416;-85
2021/03/03 09:44:48;;;;;;;48.70;27.30;;;10.40;79.80;;;;;;5054525;28;20025;-84
2021/03/03 09:47:32;;;;;;;42.17;26.00;;;10.50;79.50;;;;;;5054321;28;20032;-83
2021/03/03 09:49:59;;;;;;;38.33;25.03;;;10.70;79.30;;;;;;5054652;28;20029;-84
2021/03/03 09:52:38;;;;;;;42.03;27.00;;;10.90;79.00;;;;;;5054464;28;20029;-85
2021/03/03 09:55:06;;;;;;;38.57;25.97;;;10.90;78.80;;;;;;5054037;28;20040;-84
2021/03/03 09:57:32;;;;;;;45.83;27.23;;;11.00;78.60;;;;;;5055440;28;20067;-85
2021/03/03 09:59:58;;;;;;;48.20;28.13;;;11.10;78.40;;;;;;5054360;28;20397;-85
2021/03/03 10:02:26;;;;;;;39.30;27.02;;;11.20;78.10;;;;;;5054184;28;20029;-84
2021/03/03 10:04:53;;;;;;;41.33;26.73;;;11.20;78.00;;;;;;5055128;28;20513;-85
2021/03/03 10:07:24;;;;;;;45.20;28.13;;;11.30;77.60;;;;;;5053892;28;20492;-85
2021/03/03 10:09:54;;;;;;;48.13;30.97;;;11.50;77.10;;;;;;5054124;28;20032;-84
2021/03/03 10:12:22;;;;;;;46.40;28.43;;;11.60;76.90;;;;;;5054057;28;20029;-85
2021/03/03 10:15:02;;;;;;;52.63;28.25;;;11.50;76.60;;;;;;5053899;28;20029;-85
2021/03/03 10:17:38;;;;;;;44.05;28.48;;;11.60;76.50;;;;;;5054142;28;20059;-86
2021/03/03 10:20:32;;;;;;;44.60;30.70;;;11.70;76.30;;;;;;5053897;28;20028;-85
2021/03/03 10:23:07;;;;;;;44.20;27.83;;;11.80;76.00;;;;;;5053707;28;20075;-86
2021/03/03 10:25:41;;;;;;;46.20;29.00;;;11.80;75.70;;;;;;5038714;28;20037;-85
2021/03/03 10:28:20;;;;;;;;;;;12.00;75.70;;;;;;5054111;28;20069;-85
2021/03/03 10:30:56;;;;;;;42.80;27.80;;;12.00;75.40;;;;;;5053553;28;20078;-84
2021/03/03 10:33:26;;;;;;;40.22;27.63;;;12.20;75.30;;;;;;5038214;28;20036;-85
2021/03/03 10:35:52;;;;;;;42.35;28.15;;;12.20;75.20;;;;;;5054723;28;20029;-85
2021/03/03 10:38:21;;;;;;;42.75;27.88;;;12.30;75.00;;;;;;5053311;28;20494;-84
2021/03/03 10:40:48;;;;;;;45.22;30.70;;;12.40;74.90;;;;;;5053388;28;20044;-84
2021/03/03 10:43:17;;;;;;;46.25;30.23;;;12.60;74.70;;;;;;5053644;28;20025;-87
2021/03/03 10:45:44;;;;;;;49.03;30.75;;;12.70;74.50;;;;;;5036992;28;20025;-86
2021/03/03 10:48:31;;;;;;;42.65;28.33;;;12.90;74.30;;;;;;5055206;28;20048;-85
2021/03/03 10:51:00;;;;;;;40.70;27.85;;;13.00;74.60;;;;;;5054536;28;20048;-86
2021/03/03 10:53:59;;;;;;;43.10;28.88;;;13.30;73.90;;;;;;5036743;28;20025;-86
2021/03/03 10:56:28;;;;;;;43.25;29.55;;;13.60;73.50;;;;;;5053005;28;20586;-85
2021/03/03 10:58:56;;;;;;;42.80;27.73;;;13.90;73.40;;;;;;5052997;28;20048;-84
2021/03/03 11:01:24;;;;;;;45.72;29.20;;;14.20;73.00;;;;;;5055646;28;20114;-86
2021/03/03 11:03:59;;;;;;;42.70;29.80;;;14.50;72.60;;;;;;5064756;28;20489;-85
2021/03/03 11:06:31;;;;;;;48.72;31.88;;;14.70;71.80;;;;;;5062631;28;20515;-85
2021/03/03 11:08:57;;;;;;;45.55;31.92;;;15.10;70.60;;;;;;5065585;28;20021;-84
2021/03/03 11:11:23;;;;;;;51.42;33.65;;;15.50;70.20;;;;;;5071420;28;20039;-83
2021/03/03 11:13:49;;;;;;;47.33;33.30;;;15.70;68.60;;;;;;5069192;28;20021;-86
2021/03/03 11:16:15;;;;;;;44.85;31.27;;;16.10;67.60;;;;;;5055833;28;20036;-86
2021/03/03 11:18:41;;;;;;;43.17;30.42;;;16.40;66.70;;;;;;5072375;28;20052;-87
2021/03/03 11:21:07;;;;;;;44.38;31.48;;;16.90;66.10;;;;;;5072070;28;20039;-85
2021/03/03 11:23:33;;;;;;;45.58;32.63;;;17.40;65.00;;;;;;5068708;28;20405;-83
2021/03/03 11:25:59;;;;;;;45.28;32.67;;;17.80;63.00;;;;;;5072309;28;20021;-86
2021/03/03 11:28:25;;;;;;;42.33;32.83;;;18.10;61.70;;;;;;5069994;28;20040;-84
2021/03/03 11:30:51;;;;;;;42.15;31.83;;;18.50;60.00;;;;;;5054732;28;20036;-84
2021/03/03 11:33:18;;;;;;;40.17;29.95;;;18.80;59.20;;;;;;5071132;28;20025;-82
2021/03/03 11:35:44;;;;;;;44.33;32.38;;;19.20;58.10;;;;;;5072102;28;20384;-84
2021/03/03 11:38:10;;;;;;;46.03;30.67;;;19.50;56.70;;;;;;5056038;28;20017;-84
2021/03/03 11:40:36;;;;;;;41.08;31.05;;;19.70;55.40;;;;;;5072421;28;20028;-83
2021/03/03 11:43:02;;;;;;;46.78;33.97;;;19.90;54.10;;;;;;5072281;28;20024;-88
2021/03/03 11:45:28;;;;;;;45.60;33.67;;;20.10;53.30;;;;;;5072102;28;20037;-85
2021/03/03 11:47:54;;;;;;;45.55;33.00;;;20.40;52.90;;;;;;5072062;28;20087;-82
2021/03/03 11:50:20;;;;;;;43.55;33.20;;;20.50;51.80;;;;;;5055117;28;20047;-85
2021/03/03 11:52:46;;;;;;;46.97;37.42;;;20.50;51.30;;;;;;5071772;28;20042;-83
2021/03/03 11:55:12;;;;;;;46.80;36.53;;;20.50;49.70;;;;;;5055203;28;20032;-84
2021/03/03 11:57:37;;;;;;;53.28;41.40;;;20.30;48.50;;;;;;5055224;28;20017;-80
2021/03/03 12:00:12;;;;;;;56.95;41.80;;;20.00;48.10;;;;;;5071662;28;20032;-82
2021/03/03 12:02:37;;;;;;;55.75;43.05;;;19.80;48.30;;;;;;5071689;28;20020;-82
2021/03/03 12:05:04;;;;;;;53.38;41.28;;;19.70;48.20;;;;;;5038293;28;20037;-82
2021/03/03 12:07:30;;;;;;;48.38;38.10;;;19.70;48.10;;;;;;5071921;28;20464;-83
2021/03/03 12:09:56;;;;;;;46.42;37.08;;;19.90;48.30;;;;;;5054957;28;20028;-82
2021/03/03 12:12:21;;;;;;;50.17;37.05;;;20.20;48.10;;;;;;5071553;28;20023;-78
2021/03/03 12:14:47;;;;;;;47.13;36.67;;;20.50;47.70;;;;;;5072760;28;20033;-82
2021/03/03 12:17:13;;;;;;;45.22;35.90;;;20.60;47.90;;;;;;5053969;28;20032;-83
2021/03/03 12:19:39;;;;;;;45.33;34.67;;;20.60;47.10;;;;;;5071475;28;20052;-84
2021/03/03 12:22:04;;;;;;;50.28;35.15;;;20.50;47.20;;;;;;5054725;28;20164;-79
2021/03/03 12:24:30;;;;;;;48.25;37.63;;;20.40;46.90;;;;;;5054827;28;20111;-82
2021/03/03 12:26:55;;;;;;;49.95;36.92;;;20.40;47.20;;;;;;5038447;28;20069;-82
2021/03/03 12:29:21;;;;;;;49.70;38.38;;;20.40;47.30;;;;;;5071848;28;20037;-81
2021/03/03 12:31:47;;;;;;;53.60;38.42;;;20.50;46.60;;;;;;5071618;28;20036;-83
2021/03/03 12:34:12;;;;;;;52.22;37.85;;;20.60;46.30;;;;;;5054722;28;20364;-84
2021/03/03 12:36:38;;;;;;;53.40;39.83;;;20.80;46.30;;;;;;5055040;28;20031;-86
2021/03/03 12:39:04;;;;;;;48.55;36.88;;;20.70;45.80;;;;;;5038203;28;20032;-83
2021/03/03 12:41:30;;;;;;;52.80;40.05;;;20.60;45.90;;;;;;5054967;28;20035;-82